Time;durP1;ratioP1;P1;durP2;ratioP2;P2;SDS_P1;SDS_P2;PMS_P1;PMS_P2;Temp;Humidity;BMP_temperature;BMP_pressure;BME280_temperature;BME280_humidity;BME280_pressure;Samples;Min_cycle;Max_cycle;Signal;HPM_P1;HPM_P2
2023/05/25 00:01:07;;;;;;;;;;;;;;;16.47;81.45;99355.30;68022;1275;1016444;-63
2023/05/25 00:04:15;;;;;;;;;;;;;;;16.47;81.50;99355.98;68005;1275;1016249;-63
2023/05/25 00:07:19;;;;;;;;;;;;;;;16.60;80.55;99359.05;68077;1275;1016254;-64
2023/05/25 00:10:22;;;;;;;;;;;;;;;16.54;81.30;99356.39;67969;1275;1017162;-63
2023/05/25 00:13:28;;;;;;;;;;;;;;;16.56;80.83;99356.55;67946;1275;1016295;-63
2023/05/25 00:16:36;;;;;;;;;;;;;;;16.60;81.04;99351.83;65450;1275;6379789;-73
2023/05/25 00:19:41;;;;;;;;;;;;;;;16.59;81.40;99345.16;68030;1275;1016426;-71
2023/05/25 00:22:54;;;;;;;;;;;;;;;16.54;81.63;99346.27;67948;1275;1016429;-63
2023/05/25 00:25:57;;;;;;;;;;;;;;;16.45;82.10;99353.51;68002;1275;1016781;-74
2023/05/25 00:29:00;;;;;;;;;;;;;;;16.50;81.15;99357.86;68002;1275;1015709;-73
2023/05/25 00:32:03;;;;;;;;;;;;;;;16.57;80.48;99359.10;68016;1275;1016464;-70
2023/05/25 00:35:06;;;;;;;;;;;;;;;16.44;80.94;99365.73;68033;1275;1016429;-73
2023/05/25 00:38:09;;;;;;;;;;;;;;;16.32;81.81;99363.10;68040;1275;1016461;-63
2023/05/25 00:41:12;;;;;;;;;;;;;;;16.38;80.98;99363.58;68079;1275;1016451;-64
2023/05/25 00:44:15;;;;;;;;;;;;;;;16.48;80.22;99359.31;68027;1275;1016369;-63
2023/05/25 00:47:18;;;;;;;;;;;;;;;16.64;79.15;99362.63;67975;1275;1016418;-72
2023/05/25 00:50:21;;;;;;;;;;;;;;;16.77;78.36;99363.02;68007;1275;1015809;-63
2023/05/25 00:53:24;;;;;;;;;;;;;;;16.77;78.32;99365.72;68067;1275;1017214;-69
2023/05/25 00:56:28;;;;;;;;;;;;;;;16.88;77.44;99369.81;68006;1275;1019073;-72
2023/05/25 00:59:34;;;;;;;;;;;;;;;16.85;77.43;99374.27;68057;1275;1016063;-64
2023/05/25 01:02:37;;;;;;;;;;;;;;;16.80;78.06;99373.40;68054;1275;1016493;-73
2023/05/25 01:05:41;;;;;;;;;;;;;;;16.59;79.71;99375.21;68016;1275;1016282;-64
2023/05/25 01:08:44;;;;;;;;;;;;;;;16.60;79.44;99372.24;68008;1275;1016415;-68
2023/05/25 01:11:47;;;;;;;;;;;;;;;16.56;79.47;99374.35;68087;1275;1016406;-72
2023/05/25 01:14:52;;;;;;;;;;;;;;;16.55;79.75;99373.71;68037;1275;1016075;-63
2023/05/25 01:17:58;;;;;;;;;;;;;;;16.56;79.87;99370.14;67996;1275;1017059;-64
2023/05/25 01:21:01;;;;;;;;;;;;;;;16.66;79.09;99368.66;68083;1275;1016368;-64
2023/05/25 01:24:04;;;;;;;;;;;;;;;16.64;79.31;99373.93;68038;1275;1016215;-63
2023/05/25 01:27:07;;;;;;;;;;;;;;;16.60;79.74;99371.19;67944;1275;1016120;-63
2023/05/25 01:30:10;;;;;;;;;;;;;;;16.67;78.97;99374.42;67985;1275;1018952;-63
2023/05/25 01:33:17;;;;;;;;;;;;;;;16.72;78.84;99380.23;68039;1275;1018175;-64
2023/05/25 01:36:20;;;;;;;;;;;;;;;16.64;79.40;99380.13;67984;1275;1016749;-63
2023/05/25 01:39:22;;;;;;;;;;;;;;;16.63;79.29;99371.36;68036;1275;1018786;-72
2023/05/25 01:42:25;;;;;;;;;;;;;;;16.66;79.00;99364.77;68052;1275;1017023;-63
2023/05/25 01:45:28;;;;;;;;;;;;;;;16.66;79.28;99361.09;68005;1275;1015713;-64
2023/05/25 01:48:32;;;;;;;;;;;;;;;16.61;79.68;99357.55;68030;1275;1016260;-73
2023/05/25 01:51:35;;;;;;;;;;;;;;;16.52;79.91;99356.98;68052;1275;1016499;-63
2023/05/25 01:54:38;;;;;;;;;;;;;;;16.53;80.28;99351.98;68003;1275;1016951;-64
2023/05/25 01:57:41;;;;;;;;;;;;;;;16.51;80.31;99346.73;68008;1275;1016452;-72
2023/05/25 02:00:44;;;;;;;;;;;;;;;16.48;80.64;99347.98;68010;1275;1016407;-63
2023/05/25 02:03:49;;;;;;;;;;;;;;;16.47;80.91;99346.45;68045;1275;1016512;-72
2023/05/25 02:06:51;;;;;;;;;;;;;;;16.41;81.18;99355.37;68025;1275;1016954;-63
2023/05/25 02:09:55;;;;;;;;;;;;;;;16.34;81.24;99350.65;68050;1275;1016856;-67
2023/05/25 02:12:58;;;;;;;;;;;;;;;16.34;81.15;99346.05;68020;1275;1016728;-67
2023/05/25 02:16:00;;;;;;;;;;;;;;;16.25;81.89;99341.08;68008;1275;1018810;-73
2023/05/25 02:19:04;;;;;;;;;;;;;;;16.23;81.92;99340.02;68046;1275;1016341;-63
2023/05/25 02:22:07;;;;;;;;;;;;;;;16.33;81.37;99338.01;68050;1275;1017347;-64
2023/05/25 02:25:11;;;;;;;;;;;;;;;16.32;81.44;99339.00;68053;1275;1016031;-72
2023/05/25 02:28:14;;;;;;;;;;;;;;;16.33;80.94;99342.96;68011;1275;1017028;-66
2023/05/25 02:31:20;;;;;;;;;;;;;;;16.29;81.22;99345.16;68052;1275;1016516;-71
2023/05/25 02:34:24;;;;;;;;;;;;;;;16.26;81.07;99345.39;68063;1275;1016570;-63
2023/05/25 02:37:28;;;;;;;;;;;;;;;16.20;81.21;99352.91;67948;1275;1016335;-69
2023/05/25 02:40:33;;;;;;;;;;;;;;;16.17;81.24;99354.73;68048;1275;1016475;-73
2023/05/25 02:43:38;;;;;;;;;;;;;;;16.25;80.72;99356.45;68081;1275;1016199;-64
2023/05/25 02:46:41;;;;;;;;;;;;;;;16.35;79.78;99351.64;68079;1275;1016456;-69
2023/05/25 02:49:45;;;;;;;;;;;;;;;16.36;80.22;99358.23;68078;1275;1016517;-63
2023/05/25 02:52:48;;;;;;;;;;;;;;;16.31;80.43;99360.91;68011;1275;1016663;-72
2023/05/25 02:55:52;;;;;;;;;;;;;;;16.25;80.48;99363.45;68014;1275;1016664;-73
2023/05/25 02:58:56;;;;;;;;;;;;;;;16.25;80.73;99360.31;68031;1275;1016663;-67
2023/05/25 03:02:00;;;;;;;;;;;;;;;16.17;81.30;99361.84;68044;1275;1016453;-72
2023/05/25 03:05:21;;;;;;;;;;;;;;;16.17;81.35;99364.81;68062;1275;1016393;-64
2023/05/25 03:08:26;;;;;;;;;;;;;;;16.07;81.77;99365.53;68035;1275;1016469;-64
2023/05/25 03:11:29;;;;;;;;;;;;;;;16.16;81.40;99371.05;68053;1275;1016404;-66
2023/05/25 03:14:33;;;;;;;;;;;;;;;16.19;81.09;99375.23;67996;1275;1016486;-70
2023/05/25 03:17:37;;;;;;;;;;;;;;;16.25;80.40;99375.27;68044;1275;1016428;-72
2023/05/25 03:20:44;;;;;;;;;;;;;;;16.20;81.30;99376.58;68062;1275;1016465;-72
2023/05/25 03:23:48;;;;;;;;;;;;;;;16.08;82.31;99378.13;68067;1275;1016648;-73
2023/05/25 03:26:52;;;;;;;;;;;;;;;16.20;81.84;99379.02;68042;1275;1016469;-72
2023/05/25 03:29:55;;;;;;;;;;;;;;;16.17;82.14;99378.05;68064;1275;1016415;-64
2023/05/25 03:32:59;;;;;;;;;;;;;;;16.38;80.61;99378.07;67942;1275;1016176;-73
2023/05/25 03:36:02;;;;;;;;;;;;;;;16.31;81.29;99380.19;68034;1275;1016101;-73
2023/05/25 03:39:05;;;;;;;;;;;;;;;16.29;81.06;99375.85;68046;1275;1016215;-72
2023/05/25 03:42:09;;;;;;;;;;;;;;;16.19;82.22;99379.67;68030;1275;1016362;-73
2023/05/25 03:45:12;;;;;;;;;;;;;;;16.17;82.33;99379.75;68022;1275;1016116;-72
2023/05/25 03:48:16;;;;;;;;;;;;;;;16.26;82.02;99384.96;68044;1275;1016206;-65
2023/05/25 03:51:19;;;;;;;;;;;;;;;16.25;82.08;99383.81;68005;1275;1016491;-73
2023/05/25 03:54:23;;;;;;;;;;;;;;;16.28;82.00;99387.81;67976;1275;1016204;-72
2023/05/25 03:57:25;;;;;;;;;;;;;;;16.27;81.99;99386.60;68048;1275;1016287;-67
2023/05/25 04:00:29;;;;;;;;;;;;;;;16.23;82.55;99391.16;68032;1275;1016662;-64
2023/05/25 04:03:32;;;;;;;;;;;;;;;16.31;82.21;99396.23;68024;1275;1016196;-73
2023/05/25 04:06:36;;;;;;;;;;;;;;;16.23;82.78;99393.61;68030;1275;1016253;-72
2023/05/25 04:09:40;;;;;;;;;;;;;;;16.21;83.17;99394.31;68026;1275;1016403;-72
2023/05/25 04:12:43;;;;;;;;;;;;;;;16.30;82.52;99390.66;68002;1275;1016457;-72
2023/05/25 04:15:48;;;;;;;;;;;;;;;16.32;82.42;99390.50;68031;1275;1015849;-63
2023/05/25 04:18:51;;;;;;;;;;;;;;;16.35;82.41;99397.48;67984;1275;1016392;-73
2023/05/25 04:21:55;;;;;;;;;;;;;;;16.45;81.42;99399.41;68049;1275;1015729;-72
2023/05/25 04:24:58;;;;;;;;;;;;;;;16.56;80.87;99398.90;68009;1275;1016915;-73
2023/05/25 04:28:02;;;;;;;;;;;;;;;16.67;80.59;99401.75;68039;1275;1016458;-72
2023/05/25 04:31:05;;;;;;;;;;;;;;;16.70;80.37;99404.39;67956;1275;1016007;-73
2023/05/25 04:34:09;;;;;;;;;;;;;;;16.71;80.19;99402.70;68058;1275;1016578;-69
2023/05/25 04:37:13;;;;;;;;;;;;;;;16.80;79.98;99401.44;68069;1275;1016741;-73
2023/05/25 04:40:16;;;;;;;;;;;;;;;16.73;80.43;99403.73;67999;1275;1016430;-68
2023/05/25 04:43:20;;;;;;;;;;;;;;;16.74;80.62;99402.61;68016;1275;1018844;-72
2023/05/25 04:46:27;;;;;;;;;;;;;;;16.79;80.08;99403.30;68033;1275;1019565;-71
2023/05/25 04:49:30;;;;;;;;;;;;;;;16.88;79.47;99404.98;68046;1275;1016222;-73
2023/05/25 04:52:32;;;;;;;;;;;;;;;16.91;79.25;99409.13;68005;1275;1016436;-70
2023/05/25 04:55:35;;;;;;;;;;;;;;;16.85;79.56;99409.58;68035;1275;1016072;-73
2023/05/25 04:58:38;;;;;;;;;;;;;;;16.92;79.37;99414.54;68013;1275;1018191;-72
2023/05/25 05:01:43;;;;;;;;;;;;;;;16.78;79.81;99412.91;68033;1275;1016542;-70
2023/05/25 05:04:46;;;;;;;;;;;;;;;16.86;79.47;99414.62;68010;1275;1016464;-68
2023/05/25 05:07:50;;;;;;;;;;;;;;;16.78;79.70;99421.80;68013;1275;1016888;-72
2023/05/25 05:10:53;;;;;;;;;;;;;;;16.70;80.42;99422.03;68017;1275;1015780;-72
2023/05/25 05:13:57;;;;;;;;;;;;;;;16.62;80.88;99427.92;67994;1275;1016298;-70
2023/05/25 05:17:01;;;;;;;;;;;;;;;16.66;80.65;99428.89;68010;1275;1016433;-64
2023/05/25 05:20:07;;;;;;;;;;;;;;;16.71;80.26;99431.49;68041;1275;1016252;-72
2023/05/25 05:23:10;;;;;;;;;;;;;;;16.69;80.64;99436.23;68033;1275;1016187;-72
2023/05/25 05:26:14;;;;;;;;;;;;;;;16.65;80.63;99436.15;68011;1275;1016531;-72
2023/05/25 05:29:16;;;;;;;;;;;;;;;16.76;80.06;99439.09;67990;1275;1016376;-70
2023/05/25 05:32:20;;;;;;;;;;;;;;;16.77;79.96;99439.11;68044;1275;1016469;-73
2023/05/25 05:35:26;;;;;;;;;;;;;;;16.85;79.60;99440.67;68038;1275;1016293;-73
2023/05/25 05:38:31;;;;;;;;;;;;;;;16.87;79.58;99445.48;68069;1275;1017455;-72
2023/05/25 05:41:35;;;;;;;;;;;;;;;16.76;80.06;99445.20;68019;1275;1016386;-72
2023/05/25 05:44:38;;;;;;;;;;;;;;;16.92;79.32;99446.86;67991;1275;1016159;-63
2023/05/25 05:47:42;;;;;;;;;;;;;;;17.03;78.53;99447.27;68030;1275;1016412;-65
2023/05/25 05:50:45;;;;;;;;;;;;;;;17.16;77.88;99453.14;67995;1275;1016472;-66
2023/05/25 05:53:49;;;;;;;;;;;;;;;17.36;76.84;99451.92;68016;1275;1019573;-63
2023/05/25 05:56:53;;;;;;;;;;;;;;;17.40;76.24;99457.98;68004;1275;1016333;-71
2023/05/25 05:59:56;;;;;;;;;;;;;;;17.52;75.85;99456.52;68025;1275;1016469;-71
2023/05/25 06:03:01;;;;;;;;;;;;;;;17.57;74.94;99460.50;67929;1275;1015981;-64
2023/05/25 06:06:04;;;;;;;;;;;;;;;17.60;74.58;99459.70;67980;1275;1016472;-72
2023/05/25 06:09:09;;;;;;;;;;;;;;;17.50;74.66;99462.09;68025;1275;1016534;-72
2023/05/25 06:12:13;;;;;;;;;;;;;;;17.37;75.72;99468.63;67998;1275;1016181;-63
2023/05/25 06:15:17;;;;;;;;;;;;;;;17.50;75.39;99469.17;67985;1275;1016723;-67
2023/05/25 06:18:21;;;;;;;;;;;;;;;17.60;74.91;99468.59;68012;1275;1016513;-73
2023/05/25 06:21:24;;;;;;;;;;;;;;;17.69;74.45;99474.23;68028;1275;1015953;-72
2023/05/25 06:24:27;;;;;;;;;;;;;;;17.73;74.48;99473.03;68038;1275;1016527;-70
2023/05/25 06:27:31;;;;;;;;;;;;;;;17.82;74.19;99477.79;67951;1275;1016390;-63
2023/05/25 06:30:35;;;;;;;;;;;;;;;17.77;73.96;99478.52;68023;1275;1016394;-73
2023/05/25 06:33:39;;;;;;;;;;;;;;;17.78;73.97;99479.48;67967;1275;1016604;-72
2023/05/25 06:36:42;;;;;;;;;;;;;;;17.70;74.62;99479.47;68004;1275;1016526;-73
2023/05/25 06:39:46;;;;;;;;;;;;;;;17.74;74.94;99477.58;68007;1275;1016346;-73
2023/05/25 06:42:49;;;;;;;;;;;;;;;17.60;75.49;99474.39;67997;1275;1016454;-68
2023/05/25 06:45:52;;;;;;;;;;;;;;;17.75;75.23;99477.84;68013;1275;1016454;-73
2023/05/25 06:48:56;;;;;;;;;;;;;;;17.27;77.53;99483.17;68051;1275;1016481;-73
2023/05/25 06:52:00;;;;;;;;;;;;;;;17.17;78.99;99480.41;67996;1275;1016475;-73
2023/05/25 06:55:07;;;;;;;;;;;;;;;17.42;78.58;99478.12;68019;1275;1016414;-73
2023/05/25 06:58:11;;;;;;;;;;;;;;;17.47;77.72;99482.34;68016;1275;1016424;-73
2023/05/25 07:01:14;;;;;;;;;;;;;;;17.58;77.11;99477.91;68043;1275;1019402;-72
2023/05/25 07:04:18;;;;;;;;;;;;;;;17.60;77.01;99481.34;68047;1275;1016490;-64
2023/05/25 07:07:22;;;;;;;;;;;;;;;17.47;77.91;99480.77;68042;1275;1016847;-63
2023/05/25 07:10:25;;;;;;;;;;;;;;;17.24;79.36;99481.33;67941;1275;1016487;-73
2023/05/25 07:13:29;;;;;;;;;;;;;;;17.23;79.79;99483.31;68038;1275;1016513;-62
2023/05/25 07:16:33;;;;;;;;;;;;;;;17.30;79.29;99484.42;68053;1275;1016279;-73
2023/05/25 07:19:37;;;;;;;;;;;;;;;17.46;78.87;99482.59;68027;1275;1015934;-65
2023/05/25 07:22:41;;;;;;;;;;;;;;;17.68;77.64;99479.07;68004;1275;1016170;-65
2023/05/25 07:25:44;;;;;;;;;;;;;;;17.64;77.27;99480.78;68015;1275;1016394;-68
2023/05/25 07:28:48;;;;;;;;;;;;;;;17.61;77.65;99480.90;67991;1275;1016218;-63
2023/05/25 07:31:51;;;;;;;;;;;;;;;17.70;77.53;99481.59;68023;1275;1016291;-72
2023/05/25 07:34:56;;;;;;;;;;;;;;;17.73;77.33;99486.52;68000;1275;1016500;-73
2023/05/25 07:37:59;;;;;;;;;;;;;;;17.98;77.13;99485.20;68024;1275;1016978;-63
2023/05/25 07:41:04;;;;;;;;;;;;;;;18.19;75.40;99496.58;68031;1275;1016428;-71
2023/05/25 07:44:07;;;;;;;;;;;;;;;18.27;75.15;99497.56;68020;1275;1018083;-73
2023/05/25 07:47:10;;;;;;;;;;;;;;;18.10;75.96;99499.08;67981;1275;1016176;-73
2023/05/25 07:50:14;;;;;;;;;;;;;;;17.66;78.38;99500.48;68013;1275;1018091;-73
2023/05/25 07:53:17;;;;;;;;;;;;;;;17.61;79.14;99503.84;68021;1275;1016439;-73
2023/05/25 07:56:20;;;;;;;;;;;;;;;17.82;78.53;99500.25;68017;1275;1016456;-68
2023/05/25 07:59:23;;;;;;;;;;;;;;;17.85;78.04;99502.67;68010;1275;1015748;-66
2023/05/25 08:02:26;;;;;;;;;;;;;;;17.87;77.69;99496.84;68048;1275;1016743;-73
2023/05/25 08:05:29;;;;;;;;;;;;;;;17.84;77.94;99492.13;67976;1275;1016402;-63
2023/05/25 08:08:32;;;;;;;;;;;;;;;17.95;77.63;99495.11;68041;1275;1016301;-66
2023/05/25 08:11:34;;;;;;;;;;;;;;;18.31;76.05;99494.92;67993;1275;1018923;-64
2023/05/25 08:14:37;;;;;;;;;;;;;;;18.37;75.02;99493.33;68017;1275;1016734;-63
2023/05/25 08:17:41;;;;;;;;;;;;;;;18.59;74.74;99493.48;68014;1275;1016404;-64
2023/05/25 08:20:43;;;;;;;;;;;;;;;18.74;75.20;99492.92;67984;1275;1016133;-72
2023/05/25 08:23:49;;;;;;;;;;;;;;;19.10;74.46;99495.00;68023;1275;1019203;-72
2023/05/25 08:26:52;;;;;;;;;;;;;;;19.20;72.82;99499.82;68064;1275;1016407;-72
2023/05/25 08:29:55;;;;;;;;;;;;;;;18.99;72.74;99503.79;67941;1275;1016049;-73
2023/05/25 08:32:58;;;;;;;;;;;;;;;18.84;72.36;99503.40;68010;1275;1016377;-71
2023/05/25 08:36:01;;;;;;;;;;;;;;;18.68;73.95;99503.48;68035;1275;1016440;-73
2023/05/25 08:39:04;;;;;;;;;;;;;;;18.75;73.81;99504.39;67990;1275;1016671;-73
2023/05/25 08:42:07;;;;;;;;;;;;;;;18.65;73.40;99501.45;68003;1275;1016465;-73
2023/05/25 08:45:10;;;;;;;;;;;;;;;18.75;73.60;99501.88;68030;1275;1016403;-72
2023/05/25 08:48:13;;;;;;;;;;;;;;;18.81;72.95;99510.73;68016;1275;1016316;-63
2023/05/25 08:51:16;;;;;;;;;;;;;;;18.87;72.37;99511.48;68079;1275;1016555;-73
2023/05/25 08:54:19;;;;;;;;;;;;;;;18.93;72.62;99509.27;68008;1275;1015963;-67
2023/05/25 08:57:22;;;;;;;;;;;;;;;19.10;71.88;99510.09;68051;1275;1016513;-63
2023/05/25 09:00:25;;;;;;;;;;;;;;;19.09;72.16;99511.95;68038;1275;1016452;-74
2023/05/25 09:03:28;;;;;;;;;;;;;;;19.00;73.41;99510.23;68045;1275;1016417;-73
2023/05/25 09:06:32;;;;;;;;;;;;;;;19.05;73.51;99506.67;68023;1275;1016163;-74
2023/05/25 09:09:37;;;;;;;;;;;;;;;19.02;72.45;99503.13;68047;1275;1016361;-73
2023/05/25 09:12:44;;;;;;;;;;;;;;;19.01;71.93;99504.90;68048;1275;1016471;-74
2023/05/25 09:15:48;;;;;;;;;;;;;;;19.00;73.36;99502.80;68062;1275;1016496;-73
2023/05/25 09:18:51;;;;;;;;;;;;;;;19.09;72.00;99506.88;67966;1275;1015696;-64
2023/05/25 09:21:55;;;;;;;;;;;;;;;18.90;73.77;99507.79;68029;1275;1016455;-74
2023/05/25 09:24:58;;;;;;;;;;;;;;;18.91;73.97;99509.09;67998;1275;1016227;-73
2023/05/25 09:28:02;;;;;;;;;;;;;;;18.84;73.12;99511.42;67962;1275;1016429;-73
2023/05/25 09:31:05;;;;;;;;;;;;;;;18.73;73.46;99510.56;68015;1275;1016516;-73
2023/05/25 09:34:09;;;;;;;;;;;;;;;18.76;74.08;99514.73;68058;1275;1016412;-69
2023/05/25 09:37:13;;;;;;;;;;;;;;;18.99;73.53;99515.68;68016;1275;1016276;-64
2023/05/25 09:40:18;;;;;;;;;;;;;;;19.16;73.05;99514.58;68011;1275;1016265;-75
2023/05/25 09:43:21;;;;;;;;;;;;;;;19.14;72.78;99521.25;68062;1275;1016455;-65
2023/05/25 09:46:24;;;;;;;;;;;;;;;19.04;72.15;99521.28;68005;1275;1015964;-63
2023/05/25 09:49:28;;;;;;;;;;;;;;;19.16;71.56;99523.56;67991;1275;1016398;-68
2023/05/25 09:52:31;;;;;;;;;;;;;;;19.29;71.62;99518.20;68042;1275;1019572;-63
2023/05/25 09:55:35;;;;;;;;;;;;;;;19.46;71.99;99515.21;68040;1275;1016619;-68
2023/05/25 09:58:39;;;;;;;;;;;;;;;19.48;70.93;99521.90;68047;1275;1016419;-73
2023/05/25 10:01:43;;;;;;;;;;;;;;;19.48;70.64;99524.22;67988;1275;1016475;-70
2023/05/25 10:04:47;;;;;;;;;;;;;;;19.43;71.54;99521.48;68049;1275;1016512;-74
2023/05/25 10:07:51;;;;;;;;;;;;;;;19.41;70.63;99523.63;68015;1275;1016390;-73
2023/05/25 10:10:55;;;;;;;;;;;;;;;19.33;71.21;99526.05;68030;1275;1016394;-74
2023/05/25 10:14:02;;;;;;;;;;;;;;;19.32;71.56;99522.89;67997;1275;1016463;-73
2023/05/25 10:17:05;;;;;;;;;;;;;;;19.46;71.67;99527.26;68057;1275;1016136;-75
2023/05/25 10:20:08;;;;;;;;;;;;;;;19.63;71.40;99525.59;68014;1275;1016958;-74
2023/05/25 10:23:11;;;;;;;;;;;;;;;19.57;69.58;99529.48;68063;1275;1018886;-70
2023/05/25 10:26:15;;;;;;;;;;;;;;;19.61;70.37;99530.54;68008;1275;1016470;-75
2023/05/25 10:29:18;;;;;;;;;;;;;;;19.50;70.32;99530.41;67975;1275;1016313;-74
2023/05/25 10:32:22;;;;;;;;;;;;;;;19.51;70.80;99529.79;68070;1275;1016418;-63
2023/05/25 10:35:25;;;;;;;;;;;;;;;19.62;71.22;99530.80;68058;1275;1017511;-74
2023/05/25 10:38:30;;;;;;;;;;;;;;;19.72;69.81;99533.48;68018;1275;1016442;-75
2023/05/25 10:41:32;;;;;;;;;;;;;;;19.77;70.56;99529.66;67983;1275;1016502;-74
2023/05/25 10:44:35;;;;;;;;;;;;;;;19.74;71.13;99526.70;68031;1275;1016446;-75
2023/05/25 10:47:40;;;;;;;;;;;;;;;19.64;70.61;99528.67;68036;1275;1016697;-64
2023/05/25 10:50:43;;;;;;;;;;;;;;;19.61;70.70;99529.84;68003;1275;1016294;-74
2023/05/25 10:53:47;;;;;;;;;;;;;;;19.67;70.47;99531.73;67988;1275;1016085;-63
2023/05/25 10:56:50;;;;;;;;;;;;;;;19.60;70.35;99533.67;68066;1275;1016561;-75
2023/05/25 10:59:54;;;;;;;;;;;;;;;19.62;70.63;99529.95;67962;1275;1016523;-74
2023/05/25 11:02:57;;;;;;;;;;;;;;;19.74;70.80;99522.64;68033;1275;1015952;-70
2023/05/25 11:06:00;;;;;;;;;;;;;;;19.92;69.81;99516.29;68046;1275;1016997;-65
2023/05/25 11:09:05;;;;;;;;;;;;;;;20.08;69.27;99511.90;68040;1275;1016353;-75
2023/05/25 11:12:08;;;;;;;;;;;;;;;20.13;68.48;99510.21;68007;1275;1016509;-74
2023/05/25 11:15:11;;;;;;;;;;;;;;;20.20;68.50;99509.75;68029;1275;1016322;-64
2023/05/25 11:18:14;;;;;;;;;;;;;;;20.35;68.64;99506.95;68085;1275;1016429;-74
2023/05/25 11:21:18;;;;;;;;;;;;;;;20.55;66.80;99506.53;68022;1275;1017760;-75
2023/05/25 11:24:21;;;;;;;;;;;;;;;20.59;68.51;99509.93;68009;1275;1015929;-70
2023/05/25 11:27:24;;;;;;;;;;;;;;;20.82;66.65;99510.34;68027;1275;1016296;-63
2023/05/25 11:30:27;;;;;;;;;;;;;;;20.85;65.89;99510.82;68036;1275;1016981;-72
2023/05/25 11:33:30;;;;;;;;;;;;;;;20.92;65.35;99508.33;68040;1275;1016030;-75
2023/05/25 11:36:33;;;;;;;;;;;;;;;20.87;66.25;99509.53;68080;1275;1016387;-63
2023/05/25 11:39:36;;;;;;;;;;;;;;;20.76;65.30;99510.49;67964;1275;1016006;-74
2023/05/25 11:42:39;;;;;;;;;;;;;;;20.75;66.09;99502.48;67990;1275;1018358;-74
2023/05/25 11:45:43;;;;;;;;;;;;;;;20.79;66.33;99503.56;68062;1275;1017219;-65
2023/05/25 11:48:47;;;;;;;;;;;;;;;20.87;66.31;99501.16;68001;1275;1016560;-74
2023/05/25 11:51:49;;;;;;;;;;;;;;;20.85;65.35;99504.86;68031;1275;1016532;-75
2023/05/25 11:54:52;;;;;;;;;;;;;;;20.74;66.31;99500.40;68052;1275;1018375;-71
2023/05/25 11:57:56;;;;;;;;;;;;;;;20.84;65.39;99501.25;68034;1275;1018630;-65
2023/05/25 12:00:59;;;;;;;;;;;;;;;20.80;65.12;99503.23;67992;1275;1016271;-75
2023/05/25 12:04:02;;;;;;;;;;;;;;;20.88;65.62;99503.02;68066;1275;1015763;-63
2023/05/25 12:07:05;;;;;;;;;;;;;;;20.97;65.63;99509.35;68029;1275;1016484;-64
2023/05/25 12:10:08;;;;;;;;;;;;;;;20.89;64.64;99511.07;68060;1275;1016354;-62
2023/05/25 12:13:13;;;;;;;;;;;;;;;20.96;64.97;99501.23;68017;1275;1018947;-64
2023/05/25 12:16:16;;;;;;;;;;;;;;;21.02;65.73;99501.94;65429;1275;6386513;-75
2023/05/25 12:19:19;;;;;;;;;;;;;;;21.30;64.89;99497.14;67982;1275;1017929;-65
2023/05/25 12:22:22;;;;;;;;;;;;;;;21.37;64.27;99496.98;68072;1275;1016397;-64
2023/05/25 12:25:25;;;;;;;;;;;;;;;21.25;64.25;99497.05;67934;1275;1016406;-74
2023/05/25 12:28:29;;;;;;;;;;;;;;;21.04;63.64;99498.85;67995;1275;1016402;-75
2023/05/25 12:31:32;;;;;;;;;;;;;;;20.92;66.26;99496.13;68014;1275;1016384;-66
2023/05/25 12:34:35;;;;;;;;;;;;;;;21.03;65.14;99492.89;68045;1275;1016511;-74
2023/05/25 12:37:39;;;;;;;;;;;;;;;21.11;65.15;99495.05;68044;1275;1016030;-64
2023/05/25 12:40:42;;;;;;;;;;;;;;;21.26;64.92;99493.23;67989;1275;1016312;-69
2023/05/25 12:43:45;;;;;;;;;;;;;;;21.26;65.16;99491.98;68069;1275;1016210;-65
2023/05/25 12:46:48;;;;;;;;;;;;;;;21.39;64.92;99486.45;68025;1275;1015917;-75
2023/05/25 12:49:51;;;;;;;;;;;;;;;21.52;64.01;99486.37;68055;1275;1016429;-68
2023/05/25 12:52:54;;;;;;;;;;;;;;;21.59;63.96;99486.90;68031;1275;1018900;-67
2023/05/25 12:55:57;;;;;;;;;;;;;;;21.71;62.43;99485.23;68047;1275;1016402;-67
2023/05/25 12:59:00;;;;;;;;;;;;;;;22.15;61.81;99480.98;67987;1275;1015910;-75
2023/05/25 13:02:03;;;;;;;;;;;;;;;22.37;60.60;99480.18;68015;1275;1015964;-68
2023/05/25 13:05:06;;;;;;;;;;;;;;;22.49;58.94;99485.51;68054;1275;1016460;-74
2023/05/25 13:08:09;;;;;;;;;;;;;;;22.75;58.26;99482.45;68048;1275;1016444;-75
2023/05/25 13:11:12;;;;;;;;;;;;;;;23.07;58.62;99482.97;68005;1275;1016329;-74
2023/05/25 13:14:15;;;;;;;;;;;;;;;23.28;58.03;99479.55;67996;1275;1016784;-74
2023/05/25 13:17:18;;;;;;;;;;;;;;;23.32;58.55;99474.73;68026;1275;1016166;-67
2023/05/25 13:20:21;;;;;;;;;;;;;;;23.21;57.22;99475.16;68079;1275;1016435;-76
2023/05/25 13:23:24;;;;;;;;;;;;;;;23.07;58.84;99469.79;68051;1275;1016147;-74
2023/05/25 13:26:27;;;;;;;;;;;;;;;23.11;57.12;99476.13;67954;1275;1016436;-75
2023/05/25 13:29:30;;;;;;;;;;;;;;;23.03;57.48;99469.63;68058;1275;1016500;-75
2023/05/25 13:32:33;;;;;;;;;;;;;;;22.85;57.00;99462.36;68008;1275;1016316;-69
2023/05/25 13:35:56;;;;;;;;;;;;;;;22.92;57.47;99460.45;68073;1275;1016607;-64
2023/05/25 13:38:59;;;;;;;;;;;;;;;22.98;57.33;99460.86;67987;1275;1016470;-74
2023/05/25 13:42:10;;;;;;;;;;;;;;;23.12;57.49;99455.75;68040;1275;1015867;-75
2023/05/25 13:45:13;;;;;;;;;;;;;;;23.16;56.26;99448.53;68035;1275;1016227;-73
2023/05/25 13:48:24;;;;;;;;;;;;;;;23.29;56.98;99445.22;68049;1275;1016510;-63
2023/05/25 13:51:27;;;;;;;;;;;;;;;23.49;56.73;99444.72;68015;1275;1016425;-74
2023/05/25 13:54:30;;;;;;;;;;;;;;;23.63;55.31;99439.91;68010;1275;1016704;-75
2023/05/25 13:57:32;;;;;;;;;;;;;;;23.88;55.88;99433.00;68017;1275;1016258;-75
2023/05/25 14:00:35;;;;;;;;;;;;;;;23.99;55.34;99433.63;68035;1275;1016475;-75
2023/05/25 14:03:46;;;;;;;;;;;;;;;24.06;55.51;99429.08;68004;1275;1016364;-74
2023/05/25 14:06:50;;;;;;;;;;;;;;;24.14;54.43;99425.92;68001;1275;1016996;-69
2023/05/25 14:09:53;;;;;;;;;;;;;;;24.52;53.89;99418.39;68058;1275;1019581;-74
2023/05/25 14:12:57;;;;;;;;;;;;;;;24.74;52.81;99414.92;68013;1275;1016183;-76
2023/05/25 14:16:00;;;;;;;;;;;;;;;25.32;53.97;99401.60;68036;1275;1016124;-75
2023/05/25 14:19:04;;;;;;;;;;;;;;;25.79;50.91;99395.17;68023;1275;1016470;-74
2023/05/25 14:22:07;;;;;;;;;;;;;;;25.86;50.07;99393.81;68069;1275;1016333;-75
2023/05/25 14:25:11;;;;;;;;;;;;;;;25.98;49.24;99393.19;68026;1275;1016375;-75
2023/05/25 14:28:15;;;;;;;;;;;;;;;26.16;49.64;99386.98;68059;1275;1016272;-73
2023/05/25 14:31:18;;;;;;;;;;;;;;;26.55;48.47;99391.88;68000;1275;1016504;-75
2023/05/25 14:34:21;;;;;;;;;;;;;;;26.64;48.55;99392.27;68032;1275;1016437;-75
2023/05/25 14:37:24;;;;;;;;;;;;;;;26.78;47.82;99394.23;67999;1275;1018630;-63
2023/05/25 14:40:27;;;;;;;;;;;;;;;26.99;47.10;99389.35;68007;1275;1017233;-75
2023/05/25 14:43:32;;;;;;;;;;;;;;;26.96;48.01;99385.05;68037;1275;1018443;-63
2023/05/25 14:46:34;;;;;;;;;;;;;;;27.29;46.68;99384.85;67986;1275;1016163;-73
2023/05/25 14:49:37;;;;;;;;;;;;;;;27.15;46.45;99383.55;68065;1275;1016376;-75
2023/05/25 14:52:40;;;;;;;;;;;;;;;27.10;46.38;99383.20;68042;1275;1016478;-74
2023/05/25 14:55:43;;;;;;;;;;;;;;;27.37;46.28;99381.32;68045;1275;1018158;-75
2023/05/25 14:58:46;;;;;;;;;;;;;;;27.28;45.58;99378.25;68004;1275;1016433;-75
2023/05/25 15:01:49;;;;;;;;;;;;;;;27.34;46.13;99370.38;68016;1275;1016143;-75
2023/05/25 15:04:53;;;;;;;;;;;;;;;27.73;44.79;99370.66;68027;1275;1016445;-75
2023/05/25 15:07:56;;;;;;;;;;;;;;;28.49;44.35;99367.58;67982;1275;1018323;-67
2023/05/25 15:10:59;;;;;;;;;;;;;;;29.41;42.31;99363.02;68022;1275;1016598;-75
2023/05/25 15:14:02;;;;;;;;;;;;;;;29.92;39.59;99358.50;68032;1275;1016356;-75
2023/05/25 15:17:06;;;;;;;;;;;;;;;30.42;41.26;99354.67;68055;1275;1018045;-75
2023/05/25 15:20:08;;;;;;;;;;;;;;;31.16;39.61;99345.63;67990;1275;1016122;-71
2023/05/25 15:23:11;;;;;;;;;;;;;;;31.49;38.53;99346.63;67955;1275;1016697;-75
2023/05/25 15:26:15;;;;;;;;;;;;;;;31.37;38.35;99346.48;68028;1275;1016291;-67
2023/05/25 15:29:18;;;;;;;;;;;;;;;31.86;37.57;99343.48;68050;1275;1016366;-74
2023/05/25 15:32:20;;;;;;;;;;;;;;;32.37;37.45;99341.95;68021;1275;1016773;-63